createdAt,value
2022-10-20T00:02:09.631Z,6.82
2022-10-20T00:04:55.103Z,6.85
2022-10-20T00:07:40.566Z,8.52
2022-10-20T00:10:25.778Z,6.90
2022-10-20T00:13:10.785Z,7.97
2022-10-20T00:15:58.068Z,7.20
2022-10-20T00:18:43.234Z,9.00
2022-10-20T00:21:29.446Z,6.35
2022-10-20T00:24:15.015Z,7.45
2022-10-20T00:27:00.112Z,7.18
2022-10-20T00:29:47.982Z,6.80
2022-10-20T00:32:34.196Z,6.78
2022-10-20T00:35:19.664Z,7.78
2022-10-20T00:38:05.080Z,6.85
2022-10-20T00:40:50.502Z,7.78
2022-10-20T00:43:51.876Z,7.43
2022-10-20T00:46:40.456Z,5.43
2022-10-20T00:49:26.238Z,4.68
2022-10-20T00:52:11.699Z,6.55
2022-10-20T00:54:56.901Z,5.75
2022-10-20T00:57:44.486Z,5.95
2022-10-20T01:00:30.982Z,4.18
2022-10-20T01:03:22.638Z,6.13
2022-10-20T01:06:07.959Z,6.55
2022-10-20T01:08:54.656Z,6.90
2022-10-20T01:12:02.090Z,8.30
2022-10-20T01:14:57.939Z,10.07
2022-10-20T01:18:02.019Z,5.70
2022-10-20T01:21:16.115Z,5.75
2022-10-20T01:24:30.564Z,7.97
2022-10-20T01:27:35.521Z,6.97
2022-10-20T01:30:22.911Z,3.88
2022-10-20T01:33:11.373Z,5.65
2022-10-20T01:36:28.259Z,9.18
2022-10-20T01:39:24.353Z,5.28
2022-10-20T01:42:16.278Z,6.10
2022-10-20T01:45:08.811Z,7.78
2022-10-20T01:47:54.866Z,4.70
2022-10-20T01:50:43.702Z,4.25
2022-10-20T01:53:28.632Z,5.70
2022-10-20T01:56:30.683Z,3.83
2022-10-20T01:59:31.311Z,8.00
2022-10-20T02:02:23.262Z,7.13
2022-10-20T02:05:46.100Z,7.93
2022-10-20T02:08:46.516Z,7.32
2022-10-20T02:11:49.948Z,6.82
2022-10-20T02:14:37.441Z,8.18
2022-10-20T02:17:22.761Z,7.22
2022-10-20T02:20:10.042Z,7.00
2022-10-20T02:22:57.807Z,3.72
2022-10-20T02:25:43.170Z,4.63
2022-10-20T02:28:28.828Z,6.75
2022-10-20T02:31:14.258Z,4.85
2022-10-20T02:33:59.793Z,4.30
2022-10-20T02:36:45.331Z,9.10
2022-10-20T02:39:30.840Z,3.63
2022-10-20T02:42:17.259Z,5.00
2022-10-20T02:45:02.806Z,9.27
2022-10-20T02:47:48.333Z,4.88
2022-10-20T02:50:33.650Z,7.22
2022-10-20T02:53:18.905Z,9.00
2022-10-20T02:56:04.461Z,5.40
2022-10-20T02:58:49.962Z,4.43
2022-10-20T03:01:35.311Z,6.53
2022-10-20T03:04:20.798Z,5.38
2022-10-20T03:07:06.079Z,4.72
2022-10-20T03:09:51.403Z,5.70
2022-10-20T03:12:36.538Z,5.72
2022-10-20T03:15:21.806Z,10.52
2022-10-20T03:18:07.155Z,9.43
2022-10-20T03:20:53.450Z,9.10
2022-10-20T03:23:38.672Z,7.20
2022-10-20T03:26:24.258Z,6.45
2022-10-20T03:29:09.805Z,7.70
2022-10-20T03:31:55.195Z,5.00
2022-10-20T03:34:40.738Z,5.22
2022-10-20T03:37:25.744Z,7.80
2022-10-20T03:40:11.342Z,8.00
2022-10-20T03:42:56.771Z,5.35
2022-10-20T03:45:43.034Z,6.70
2022-10-20T03:48:28.602Z,8.32
2022-10-20T03:51:15.041Z,16.10
2022-10-20T03:54:00.300Z,6.60
2022-10-20T03:56:45.695Z,5.47
2022-10-20T03:59:30.778Z,10.30
2022-10-20T04:02:38.466Z,6.57
2022-10-20T04:05:23.756Z,5.25
2022-10-20T04:08:08.952Z,6.00
2022-10-20T04:10:54.289Z,7.70
2022-10-20T04:13:39.953Z,8.73
2022-10-20T04:16:25.502Z,6.00
2022-10-20T04:19:10.824Z,6.40
2022-10-20T04:21:56.137Z,11.07
2022-10-20T04:24:41.767Z,7.13
2022-10-20T04:27:28.345Z,7.68
2022-10-20T04:30:13.817Z,5.88
2022-10-20T04:32:59.000Z,6.03
2022-10-20T04:35:44.425Z,5.90
2022-10-20T04:38:30.907Z,6.85
2022-10-20T04:41:16.401Z,5.82
2022-10-20T04:44:01.871Z,10.63
2022-10-20T04:46:47.273Z,6.40
2022-10-20T04:49:32.404Z,7.38
2022-10-20T04:52:17.769Z,5.32
2022-10-20T04:55:03.603Z,6.95
2022-10-20T04:57:48.922Z,9.88
2022-10-20T05:00:34.514Z,7.93
2022-10-20T05:03:20.019Z,8.95
2022-10-20T05:06:13.241Z,6.82
2022-10-20T05:09:01.287Z,6.32
2022-10-20T05:11:46.736Z,7.28
2022-10-20T05:14:31.779Z,7.60
2022-10-20T05:17:17.242Z,9.70
2022-10-20T05:20:02.847Z,5.57
2022-10-20T05:22:47.976Z,7.57
2022-10-20T05:25:37.195Z,13.95
2022-10-20T05:28:22.614Z,8.80
2022-10-20T05:31:08.916Z,7.72
2022-10-20T05:33:56.266Z,7.43
2022-10-20T05:36:41.605Z,8.57
2022-10-20T05:39:26.795Z,8.23
2022-10-20T05:42:12.338Z,9.20
2022-10-20T05:44:57.856Z,8.38
2022-10-20T05:47:43.849Z,12.23
2022-10-20T05:50:28.960Z,11.98
2022-10-20T05:53:16.682Z,8.48
2022-10-20T05:56:04.411Z,10.25
2022-10-20T05:58:49.753Z,16.75
2022-10-20T06:02:04.354Z,11.45
2022-10-20T06:04:49.856Z,9.98
2022-10-20T06:07:35.031Z,11.73
2022-10-20T06:10:20.566Z,14.23
2022-10-20T06:13:05.814Z,9.30
2022-10-20T06:15:51.058Z,12.40
2022-10-20T06:18:38.776Z,9.35
2022-10-20T06:21:34.949Z,12.65
2022-10-20T06:24:20.595Z,14.05
2022-10-20T06:27:05.986Z,9.50
2022-10-20T06:29:51.371Z,10.80
2022-10-20T06:32:36.911Z,8.23
2022-10-20T06:35:22.274Z,10.73
2022-10-20T06:38:07.451Z,9.05
2022-10-20T06:40:53.094Z,13.82
2022-10-20T06:43:38.469Z,11.98
2022-10-20T06:46:24.076Z,14.68
2022-10-20T06:49:11.552Z,17.27
2022-10-20T06:51:57.105Z,15.02
2022-10-20T06:54:42.173Z,16.05
2022-10-20T06:57:27.483Z,14.35
2022-10-20T07:00:12.863Z,17.50
2022-10-20T07:02:58.348Z,10.48
2022-10-20T07:05:43.727Z,12.20
2022-10-20T07:08:31.066Z,13.38
2022-10-20T07:11:19.580Z,11.95
2022-10-20T07:14:05.203Z,13.43
2022-10-20T07:16:50.453Z,11.15
2022-10-20T07:19:35.613Z,13.70
2022-10-20T07:22:21.010Z,12.27
2022-10-20T07:25:07.229Z,13.93
2022-10-20T07:27:52.215Z,13.65
2022-10-20T07:30:40.171Z,12.52
2022-10-20T07:33:25.777Z,13.55
2022-10-20T07:36:13.202Z,12.45
2022-10-20T07:39:01.012Z,17.35
2022-10-20T07:41:47.858Z,16.77
2022-10-20T07:44:33.297Z,9.25
2022-10-20T07:47:18.418Z,14.38
2022-10-20T07:50:03.884Z,15.07
2022-10-20T07:52:53.145Z,11.88
2022-10-20T07:55:39.275Z,14.82
2022-10-20T07:58:24.831Z,12.48
2022-10-20T08:01:10.547Z,9.68
2022-10-20T08:03:55.979Z,13.05
2022-10-20T08:06:41.123Z,14.27
2022-10-20T08:09:26.549Z,12.68
2022-10-20T08:12:12.066Z,15.82
2022-10-20T08:14:57.550Z,12.73
2022-10-20T08:17:47.446Z,13.93
2022-10-20T08:20:34.318Z,11.63
2022-10-20T08:23:19.781Z,11.45
2022-10-20T08:26:10.517Z,10.35
2022-10-20T08:28:56.456Z,8.90
2022-10-20T08:31:44.112Z,9.85
2022-10-20T08:34:29.710Z,10.30
2022-10-20T08:37:15.184Z,9.43
2022-10-20T08:40:00.227Z,11.70
2022-10-20T08:42:47.218Z,14.32
2022-10-20T08:45:38.222Z,8.85
2022-10-20T08:48:27.754Z,12.93
2022-10-20T08:51:18.891Z,9.55
2022-10-20T08:54:11.374Z,11.68
2022-10-20T08:56:58.627Z,10.32
2022-10-20T08:59:44.297Z,7.72
2022-10-20T09:02:33.934Z,11.25
2022-10-20T09:05:31.503Z,10.20
2022-10-20T09:08:18.611Z,10.43
2022-10-20T09:11:07.978Z,8.68
2022-10-20T09:13:54.293Z,8.75
2022-10-20T09:16:59.223Z,9.75
2022-10-20T09:19:51.986Z,16.48
2022-10-20T09:22:37.455Z,9.38
2022-10-20T09:25:25.335Z,6.95
2022-10-20T09:28:22.424Z,7.05
2022-10-20T09:31:32.709Z,9.18
2022-10-20T09:34:29.807Z,8.50
2022-10-20T09:37:19.612Z,8.05
2022-10-20T09:42:57.119Z,10.95
2022-10-20T09:45:59.064Z,6.75
2022-10-20T09:48:47.876Z,8.82
2022-10-20T09:51:33.735Z,9.48
2022-10-20T09:54:20.314Z,11.35
2022-10-20T09:57:14.926Z,9.52
2022-10-20T10:00:04.546Z,11.82
2022-10-20T10:03:21.398Z,14.35
2022-10-20T10:06:31.822Z,6.50
2022-10-20T10:09:28.150Z,15.27
2022-10-20T10:12:13.229Z,8.45
2022-10-20T10:15:06.674Z,11.32
2022-10-20T10:17:52.342Z,9.10
2022-10-20T10:20:40.065Z,9.30
2022-10-20T10:23:27.699Z,5.75
2022-10-20T10:26:37.898Z,7.95
2022-10-20T10:29:34.706Z,9.75
2022-10-20T10:32:28.134Z,10.90
2022-10-20T10:35:19.836Z,6.68
2022-10-20T10:38:06.720Z,8.20
2022-10-20T10:41:01.177Z,10.82
2022-10-20T10:44:23.955Z,5.85
2022-10-20T10:47:15.059Z,9.48
2022-10-20T10:50:39.485Z,9.30
2022-10-20T10:53:29.779Z,5.75
2022-10-20T10:56:38.105Z,4.88
2022-10-20T10:59:31.804Z,7.15
2022-10-20T11:02:30.607Z,8.52
2022-10-20T11:05:25.461Z,6.47
2022-10-20T11:08:32.772Z,8.95
2022-10-20T11:11:42.469Z,7.30
2022-10-20T11:17:38.388Z,8.40
2022-10-20T11:20:42.630Z,11.55
2022-10-20T11:23:46.189Z,8.68
2022-10-20T11:26:34.892Z,6.28
2022-10-20T11:29:51.151Z,9.18
2022-10-20T11:33:00.391Z,4.95
2022-10-20T11:35:58.499Z,6.43
2022-10-20T11:38:49.230Z,4.95
2022-10-20T11:41:38.265Z,6.40
2022-10-20T11:44:36.642Z,10.25
2022-10-20T11:47:46.332Z,6.20
2022-10-20T11:50:33.094Z,5.68
2022-10-20T11:53:29.199Z,5.63
2022-10-20T11:56:35.492Z,4.30
2022-10-20T11:59:42.430Z,4.40
2022-10-20T12:03:09.430Z,5.40
2022-10-20T12:06:21.350Z,4.63
2022-10-20T12:09:25.823Z,4.13
2022-10-20T12:12:41.214Z,5.60
2022-10-20T12:15:28.095Z,4.15
2022-10-20T12:18:27.815Z,4.95
2022-10-20T12:24:03.127Z,6.25
2022-10-20T12:30:17.644Z,4.57
2022-10-20T12:33:18.125Z,4.10
2022-10-20T12:36:19.241Z,7.25
2022-10-20T12:39:17.736Z,6.55
2022-10-20T12:42:05.270Z,13.55
2022-10-20T12:44:51.984Z,9.30
2022-10-20T12:47:37.790Z,5.25
2022-10-20T12:50:36.836Z,5.53
2022-10-20T12:53:29.400Z,5.10
2022-10-20T12:56:20.834Z,6.97
2022-10-20T12:59:29.259Z,5.57
2022-10-20T13:02:17.679Z,3.80
2022-10-20T13:05:06.115Z,7.38
2022-10-20T13:07:56.968Z,4.25
2022-10-20T13:10:42.489Z,4.78
2022-10-20T13:13:43.139Z,7.97
2022-10-20T13:16:31.234Z,3.45
2022-10-20T13:19:24.330Z,5.38
2022-10-20T13:22:40.777Z,10.65
2022-10-20T13:25:46.399Z,3.30
2022-10-20T13:28:32.621Z,7.47
2022-10-20T13:31:42.530Z,4.68
2022-10-20T13:34:40.153Z,5.15
2022-10-20T13:37:39.107Z,5.25
2022-10-20T13:40:30.917Z,4.60
2022-10-20T13:43:34.448Z,7.00
2022-10-20T13:46:41.746Z,8.25
2022-10-20T13:50:14.163Z,4.25
2022-10-20T13:53:11.483Z,5.18
2022-10-20T13:56:15.312Z,6.95
2022-10-20T13:59:13.858Z,6.45
2022-10-20T14:02:03.684Z,4.93
2022-10-20T14:05:01.920Z,7.47
2022-10-20T14:07:47.344Z,11.38
2022-10-20T14:10:40.175Z,4.75
2022-10-20T14:13:31.807Z,4.63
2022-10-20T14:16:21.055Z,6.97
2022-10-20T14:19:11.933Z,6.07
2022-10-20T14:22:19.070Z,7.20
2022-10-20T14:25:05.447Z,5.07
2022-10-20T14:27:53.348Z,9.85
2022-10-20T14:30:41.114Z,5.20
2022-10-20T14:33:28.582Z,7.53
2022-10-20T14:36:42.439Z,7.88
2022-10-20T14:39:38.391Z,4.68
2022-10-20T14:42:31.106Z,5.05
2022-10-20T14:45:24.200Z,4.20
2022-10-20T14:48:16.377Z,5.97
2022-10-20T14:51:02.931Z,4.57
2022-10-20T14:53:48.567Z,3.65
2022-10-20T14:56:33.999Z,4.72
2022-10-20T14:59:23.141Z,4.68
2022-10-20T15:02:12.481Z,8.35
2022-10-20T15:05:21.430Z,6.50
2022-10-20T15:08:31.104Z,4.00
2022-10-20T15:14:16.259Z,5.28
2022-10-20T15:17:03.212Z,5.60
2022-10-20T15:19:48.629Z,6.10
2022-10-20T15:22:34.061Z,5.65
2022-10-20T15:25:19.554Z,6.05
2022-10-20T15:28:06.258Z,7.93
2022-10-20T15:30:51.965Z,5.85
2022-10-20T15:33:37.902Z,10.88
2022-10-20T15:36:32.889Z,8.02
2022-10-20T15:39:18.368Z,8.55
2022-10-20T15:42:10.854Z,7.50
2022-10-20T15:44:55.957Z,5.95
2022-10-20T15:47:41.679Z,6.57
2022-10-20T15:50:26.961Z,8.05
2022-10-20T15:53:12.408Z,9.02
2022-10-20T15:55:57.816Z,7.40
2022-10-20T15:58:42.861Z,7.40
2022-10-20T16:01:28.503Z,9.85
2022-10-20T16:04:26.316Z,7.38
2022-10-20T16:07:11.846Z,12.00
2022-10-20T16:09:56.973Z,10.27
2022-10-20T16:12:42.586Z,8.10
2022-10-20T16:15:30.381Z,9.00
2022-10-20T16:18:16.562Z,8.50
2022-10-20T16:21:04.502Z,8.43
2022-10-20T16:24:01.028Z,7.13
2022-10-20T16:26:46.380Z,8.77
2022-10-20T16:29:32.552Z,12.48
2022-10-20T16:32:17.938Z,10.20
2022-10-20T16:35:06.444Z,11.35
2022-10-20T16:37:51.913Z,11.13
2022-10-20T16:40:37.356Z,10.15
2022-10-20T16:43:22.614Z,8.55
2022-10-20T16:46:09.513Z,8.95
2022-10-20T16:48:57.141Z,10.68
2022-10-20T16:51:42.548Z,8.20
2022-10-20T16:54:28.295Z,8.77
2022-10-20T16:57:13.860Z,8.25
2022-10-20T17:00:00.334Z,9.18
2022-10-20T17:02:47.361Z,10.55
2022-10-20T17:05:32.970Z,14.48
2022-10-20T17:08:18.013Z,10.50
2022-10-20T17:11:06.612Z,10.38
2022-10-20T17:13:52.874Z,11.93
2022-10-20T17:16:40.058Z,9.98
2022-10-20T17:19:25.318Z,13.43
2022-10-20T17:25:01.309Z,10.52
2022-10-20T17:27:46.463Z,11.80
2022-10-20T17:30:37.985Z,14.20
2022-10-20T17:33:28.110Z,12.52
2022-10-20T17:36:17.086Z,13.18
2022-10-20T17:39:08.483Z,11.90
2022-10-20T17:41:54.509Z,14.05
2022-10-20T17:44:39.648Z,14.55
2022-10-20T17:47:25.107Z,12.57
2022-10-20T17:50:11.116Z,13.45
2022-10-20T17:52:59.044Z,10.30
2022-10-20T17:55:44.354Z,17.25
2022-10-20T17:58:29.811Z,12.15
2022-10-20T18:01:17.266Z,10.93
2022-10-20T18:04:05.720Z,11.38
2022-10-20T18:06:50.874Z,13.68
2022-10-20T18:09:35.950Z,20.23
2022-10-20T18:12:21.387Z,23.20
2022-10-20T18:15:07.179Z,12.27
2022-10-20T18:17:55.768Z,12.85
2022-10-20T18:20:57.460Z,10.45
2022-10-20T18:23:45.544Z,11.75
2022-10-20T18:26:35.573Z,17.48
2022-10-20T18:29:23.319Z,11.25
2022-10-20T18:32:08.607Z,17.67
2022-10-20T18:34:54.112Z,12.57
2022-10-20T18:37:40.449Z,10.13
2022-10-20T18:40:25.918Z,17.15
2022-10-20T18:43:11.186Z,13.52
2022-10-20T18:45:56.642Z,14.85
2022-10-20T18:48:42.303Z,11.73
2022-10-20T18:51:27.928Z,16.67
2022-10-20T18:54:13.520Z,11.20
2022-10-20T18:56:59.191Z,10.05
2022-10-20T18:59:44.329Z,15.75
2022-10-20T19:02:31.141Z,15.02
2022-10-20T19:05:16.675Z,14.68
2022-10-20T19:08:01.706Z,13.93
2022-10-20T19:10:47.391Z,13.10
2022-10-20T19:13:32.654Z,15.20
2022-10-20T19:16:21.966Z,12.07
2022-10-20T19:19:08.075Z,14.50
2022-10-20T19:21:54.042Z,15.25
2022-10-20T19:24:42.254Z,17.20
2022-10-20T19:27:28.026Z,12.88
2022-10-20T19:30:13.577Z,13.32
2022-10-20T19:32:58.782Z,12.45
2022-10-20T19:35:43.969Z,11.45
2022-10-20T19:38:34.542Z,16.52
2022-10-20T19:41:19.970Z,19.67
2022-10-20T19:44:12.408Z,15.23
2022-10-20T19:46:58.600Z,19.42
2022-10-20T19:49:44.771Z,14.48
2022-10-20T19:52:30.099Z,18.50
2022-10-20T19:55:15.468Z,13.13
2022-10-20T19:58:00.601Z,20.27
2022-10-20T20:00:50.522Z,17.95
2022-10-20T20:03:36.297Z,14.98
2022-10-20T20:06:22.627Z,15.55
2022-10-20T20:09:13.611Z,17.70
2022-10-20T20:11:59.314Z,14.43
2022-10-20T20:14:44.595Z,13.45
2022-10-20T20:17:30.107Z,17.08
2022-10-20T20:20:16.056Z,13.95
2022-10-20T20:23:01.067Z,18.98
2022-10-20T20:25:46.655Z,10.35
2022-10-20T20:28:34.932Z,14.18
2022-10-20T20:31:21.543Z,15.90
2022-10-20T20:34:08.696Z,12.45
2022-10-20T20:36:54.418Z,12.07
2022-10-20T20:39:40.047Z,11.10
2022-10-20T20:42:25.345Z,10.98
2022-10-20T20:45:11.313Z,13.02
2022-10-20T20:47:56.597Z,13.40
2022-10-20T20:50:42.288Z,13.57
2022-10-20T20:53:28.001Z,12.88
2022-10-20T20:56:15.514Z,12.90
2022-10-20T20:59:00.650Z,11.93
2022-10-20T21:01:48.884Z,13.95
2022-10-20T21:04:34.269Z,13.25
2022-10-20T21:07:19.432Z,15.20
2022-10-20T21:10:05.842Z,20.50
2022-10-20T21:12:52.839Z,16.42
2022-10-20T21:15:38.086Z,13.18
2022-10-20T21:18:23.447Z,10.65
2022-10-20T21:24:03.616Z,11.73
2022-10-20T21:26:51.521Z,12.23
2022-10-20T21:29:36.627Z,12.85
2022-10-20T21:32:21.896Z,12.05
2022-10-20T21:35:07.309Z,11.77
2022-10-20T21:37:52.641Z,11.50
2022-10-20T21:40:37.768Z,14.20
2022-10-20T21:43:23.229Z,11.02
2022-10-20T21:46:08.673Z,11.57
2022-10-20T21:49:09.703Z,15.18
2022-10-20T21:51:57.782Z,12.05
2022-10-20T21:54:43.524Z,11.35
2022-10-20T21:57:28.706Z,12.73
2022-10-20T22:00:14.665Z,9.63
2022-10-20T22:03:00.297Z,12.07
2022-10-20T22:05:45.544Z,11.00
2022-10-20T22:08:31.250Z,11.93
2022-10-20T22:11:23.556Z,15.45
2022-10-20T22:14:08.876Z,9.57
2022-10-20T22:16:56.572Z,10.70
2022-10-20T22:19:42.220Z,14.40
2022-10-20T22:22:30.945Z,13.38
2022-10-20T22:25:16.727Z,8.10
2022-10-20T22:28:02.039Z,12.63
2022-10-20T22:30:47.485Z,12.57
2022-10-20T22:33:33.000Z,15.50
2022-10-20T22:36:19.002Z,11.68
2022-10-20T22:39:05.483Z,12.55
2022-10-20T22:41:50.682Z,14.68
2022-10-20T22:44:35.978Z,17.63
2022-10-20T22:47:21.648Z,13.88
2022-10-20T22:50:07.472Z,10.82
2022-10-20T22:52:52.979Z,14.23
2022-10-20T22:55:38.352Z,14.38
2022-10-20T22:58:23.932Z,14.18
2022-10-20T23:01:19.978Z,11.77
2022-10-20T23:04:05.342Z,12.75
2022-10-20T23:06:50.667Z,15.68
2022-10-20T23:09:35.844Z,12.20
2022-10-20T23:12:21.214Z,13.20
2022-10-20T23:15:07.539Z,12.35
2022-10-20T23:17:53.390Z,10.25
2022-10-20T23:20:40.126Z,16.15
2022-10-20T23:23:26.001Z,12.93
2022-10-20T23:26:12.224Z,11.95
2022-10-20T23:28:57.628Z,15.93
2022-10-20T23:31:43.028Z,19.40
2022-10-20T23:34:28.257Z,11.27
2022-10-20T23:37:13.452Z,10.20
2022-10-20T23:39:59.002Z,13.15
2022-10-20T23:42:44.285Z,13.98
2022-10-20T23:45:30.916Z,11.02
2022-10-20T23:51:05.758Z,16.67
2022-10-20T23:53:51.673Z,13.50
2022-10-20T23:56:36.784Z,14.48
2022-10-20T23:59:22.169Z,13.48
